Merweborg — PDBM — position and weather

sailwx.info

Track history (hours):
 
Tides and Currents Weather Stations Pressure Air Temp Water Temp Dewpoint Dewpoint Depression Visibility Wind Speed Wind Dir Waves Ship Positions

Merweborg

Last reported at 2018-Jan-18 16:43 UTC. Time now 2018-Jan-19 01:20 UTC.
Position N 51°38' E 002°27'.

Length 135 m; draft 7 m.

Type: Ship. MMSI: 244860325.

Date/timePositionNaut miles runAvg speedWind from/ knotsBaromVisibWave heightAir tempDewpointWater temp
2018-Jan-18 16:43N 51°38' E 002°27'412.3
2018-Jan-18 16:22N 51°34' E 002°22'513.0
2018-Jan-18 16:00N 51°31' E 002°17'612.9
2018-Jan-18 15:30N 51°25' E 002°12'611.3
2018-Jan-18 15:01N 51°20' E 002°09'5 9.7
2018-Jan-18 14:30N 51°16' E 002°05'713.4
2018-Jan-18 14:00N 51°12' E 001°57'713.2
2018-Jan-18 13:30N 51°07' E 001°49'611.1
2018-Jan-18 13:01N 51°03' E 001°43'611.5
2018-Jan-18 12:30N 50°59' E 001°37'611.8
2018-Jan-18 12:00N 50°55' E 001°30'38 9.9
2018-Jan-18 08:08N 50°29' E 000°45'1410.3
2018-Jan-18 06:46N 50°25' E 000°24'3 8.8
2018-Jan-18 06:27N 50°24' E 000°19'4 8.5
2018-Jan-18 06:00N 50°23' E 000°13'4 8.1
2018-Jan-18 05:31N 50°22' E 000°07'4 7.8
2018-Jan-18 05:01N 50°21' E 000°02'4 7.7
2018-Jan-18 04:31N 50°20' W 000°04'4 7.6
2018-Jan-18 04:00N 50°19' W 000°10'4 7.3
2018-Jan-18 03:30N 50°18' W 000°16'  
Track history (hours):
 
Tides and Currents Weather Stations Pressure Air Temp Water Temp Dewpoint Dewpoint Depression Visibility Wind Speed Wind Dir Waves Ship Positions

Merweborg

Last reported at 2018-Jan-18 16:43 UTC. Time now 2018-Jan-19 01:20 UTC.
Position N 51°38' E 002°27'.

Length 135 m; draft 7 m.

Type: Ship. MMSI: 244860325.

Date/timePositionNaut miles runAvg speedWind from/ knotsBaromVisibWave heightAir tempDewpointWater temp
2018-Jan-18 16:43N 51°38' E 002°27'412.3
2018-Jan-18 16:22N 51°34' E 002°22'513.0
2018-Jan-18 16:00N 51°31' E 002°17'612.9
2018-Jan-18 15:30N 51°25' E 002°12'611.3
2018-Jan-18 15:01N 51°20' E 002°09'5 9.7
2018-Jan-18 14:30N 51°16' E 002°05'713.4
2018-Jan-18 14:00N 51°12' E 001°57'713.2
2018-Jan-18 13:30N 51°07' E 001°49'611.1
2018-Jan-18 13:01N 51°03' E 001°43'611.5
2018-Jan-18 12:30N 50°59' E 001°37'611.8
2018-Jan-18 12:00N 50°55' E 001°30'38 9.9
2018-Jan-18 08:08N 50°29' E 000°45'1410.3
2018-Jan-18 06:46N 50°25' E 000°24'3 8.8
2018-Jan-18 06:27N 50°24' E 000°19'4 8.5
2018-Jan-18 06:00N 50°23' E 000°13'4 8.1
2018-Jan-18 05:31N 50°22' E 000°07'4 7.8
2018-Jan-18 05:01N 50°21' E 000°02'4 7.7
2018-Jan-18 04:31N 50°20' W 000°04'4 7.6
2018-Jan-18 04:00N 50°19' W 000°10'4 7.3
2018-Jan-18 03:30N 50°18' W 000°16'  

Dump ship's entire track history